Terminal Aerodrome Forecast
Issued by NWS

Home | Current Version | Previous Version | Text Only | Print | Product List | Glossary On
Versions: 1 2 3 4 5 6 7 8 9 10 11 12 13 14 15 16 17 18 19 20
000
FTUS43 KMQT 300526
TAFIWD
TAF
KIWD 300526Z 3006/3106 34005KT 6SM -SHRA BR OVC012
     FM300900 36007KT P6SM BKN022
     FM301200 36008KT P6SM SCT035
     FM301700 36009KT P6SM FEW200
     FM310000 04005KT P6SM SKC
      AMD LTD TO CLD VIS AND WIND=

USA.gov is the U.S. government's official web portal to all federal, state and local government web resources and services.